Time;durP1;ratioP1;P1;durP2;ratioP2;P2;SDS_P1;SDS_P2;PMS_P1;PMS_P2;Temp;Humidity;BMP_temperature;BMP_pressure;BME280_temperature;BME280_humidity;BME280_pressure;Samples;Min_cycle;Max_cycle;Signal;HPM_P1;HPM_P2
2022/06/14 00:02:51;;;;;;;9.05;3.10;;;12.00;99.90;;;;;;5072907;28;20113;-53
2022/06/14 00:05:16;;;;;;;9.68;2.83;;;12.00;99.90;;;;;;5074710;28;20033;-55
2022/06/14 00:07:42;;;;;;;11.10;2.97;;;12.00;99.90;;;;;;5074941;28;20032;-54
2022/06/14 00:10:08;;;;;;;13.93;3.13;;;12.00;99.90;;;;;;5074695;28;20051;-55
2022/06/14 00:12:34;;;;;;;11.80;3.35;;;12.00;99.90;;;;;;5073948;28;20061;-55
2022/06/14 00:15:00;;;;;;;10.25;2.70;;;12.10;99.90;;;;;;5074913;28;20043;-55
2022/06/14 00:17:25;;;;;;;17.50;3.67;;;12.10;99.90;;;;;;5074878;28;20544;-55
2022/06/14 00:19:51;;;;;;;14.98;3.47;;;12.10;99.90;;;;;;5074569;28;20073;-55
2022/06/14 00:22:17;;;;;;;11.95;3.90;;;12.10;99.90;;;;;;5074803;28;20106;-55
2022/06/14 00:24:42;;;;;;;10.02;3.00;;;12.10;99.90;;;;;;5082751;28;20036;-56
2022/06/14 00:27:08;;;;;;;10.70;3.42;;;12.10;99.90;;;;;;5094802;28;20043;-54
2022/06/14 00:29:34;;;;;;;13.45;3.90;;;12.10;99.90;;;;;;5094798;28;20439;-53
2022/06/14 00:31:59;;;;;;;11.63;3.25;;;12.00;99.90;;;;;;5093318;28;20036;-54
2022/06/14 00:34:25;;;;;;;10.82;3.67;;;12.10;99.90;;;;;;5094874;28;20040;-55
2022/06/14 00:36:53;;;;;;;7.85;3.75;;;12.20;99.90;;;;;;5094865;28;20051;-54
2022/06/14 00:39:19;;;;;;;9.15;3.72;;;12.10;99.90;;;;;;5085653;28;20036;-54
2022/06/14 00:41:51;;;;;;;13.48;3.60;;;12.10;99.90;;;;;;5094489;28;20493;-56
2022/06/14 00:44:23;;;;;;;11.90;3.55;;;12.10;99.90;;;;;;5094413;28;20111;-55
2022/06/14 00:46:48;;;;;;;9.98;3.35;;;12.10;99.90;;;;;;5094545;28;20071;-55
2022/06/14 00:49:20;;;;;;;10.00;3.67;;;12.10;99.90;;;;;;5094394;28;20133;-55
2022/06/14 00:52:00;;;;;;;14.88;3.67;;;12.10;99.90;;;;;;5094408;28;20550;-55
2022/06/14 00:54:32;;;;;;;9.13;3.47;;;12.10;99.90;;;;;;5094274;28;20032;-55
2022/06/14 00:57:05;;;;;;;14.27;3.90;;;12.20;99.90;;;;;;5094361;28;20062;-56
2022/06/14 01:00:03;;;;;;;9.73;3.70;;;12.20;99.90;;;;;;5094235;28;20068;-55
2022/06/14 01:02:34;;;;;;;11.98;4.18;;;12.10;99.90;;;;;;5091084;28;20066;-55
2022/06/14 01:05:04;;;;;;;9.77;3.72;;;12.00;99.90;;;;;;5091079;28;20079;-55
2022/06/14 01:07:38;;;;;;;11.73;4.22;;;12.00;99.90;;;;;;5088305;28;20078;-53
2022/06/14 01:10:11;;;;;;;13.25;4.85;;;12.00;99.90;;;;;;5089447;28;20082;-55
2022/06/14 01:12:45;;;;;;;14.00;3.67;;;12.00;99.90;;;;;;5084371;28;20044;-53
2022/06/14 01:15:21;;;;;;;11.27;3.58;;;12.00;99.90;;;;;;5091126;28;20182;-55
2022/06/14 01:17:58;;;;;;;8.45;3.80;;;11.90;99.90;;;;;;5093843;28;20044;-54
2022/06/14 01:20:24;;;;;;;14.82;3.50;;;11.90;99.90;;;;;;5092656;28;20055;-55
2022/06/14 01:22:51;;;;;;;10.95;3.65;;;11.80;99.90;;;;;;5093888;28;20044;-55
2022/06/14 01:25:18;;;;;;;11.40;3.47;;;11.80;99.90;;;;;;5093888;28;20040;-55
2022/06/14 01:27:43;;;;;;;12.38;4.05;;;11.80;99.90;;;;;;5093552;28;20032;-55
2022/06/14 01:30:17;;;;;;;8.50;3.63;;;11.80;99.90;;;;;;5094016;28;20040;-54
2022/06/14 01:32:58;;;;;;;9.98;3.80;;;11.80;99.90;;;;;;5093680;28;20490;-55
2022/06/14 01:35:27;;;;;;;11.77;4.38;;;11.70;99.90;;;;;;5093781;28;20040;-55
2022/06/14 01:37:56;;;;;;;9.75;3.97;;;11.60;99.90;;;;;;5092214;28;20052;-54
2022/06/14 01:41:06;;;;;;;7.68;3.50;;;11.50;99.90;;;;;;5093586;28;20119;-55
2022/06/14 01:43:48;;;;;;;12.88;4.15;;;11.60;99.90;;;;;;5093664;28;20035;-55
2022/06/14 01:46:51;;;;;;;13.25;3.40;;;11.60;99.90;;;;;;5093345;28;20486;-55
2022/06/14 01:52:24;;;;;;;12.75;3.63;;;11.50;99.90;;;;;;5070711;28;20128;-55
2022/06/14 01:54:57;;;;;;;15.05;4.07;;;11.40;99.90;;;;;;5070939;28;20079;-55
2022/06/14 01:57:32;;;;;;;11.05;4.25;;;11.40;99.90;;;;;;5070712;28;20458;-53
2022/06/14 02:00:08;;;;;;;12.32;3.47;;;11.30;99.90;;;;;;5070695;28;20056;-54
2022/06/14 02:02:36;;;;;;;11.18;3.33;;;11.20;99.90;;;;;;5070790;28;20391;-54
2022/06/14 02:05:19;;;;;;;9.87;3.40;;;11.30;99.90;;;;;;5070559;28;20059;-54
2022/06/14 02:07:45;;;;;;;8.65;3.08;;;11.30;99.90;;;;;;5070623;28;20336;-55
2022/06/14 02:10:38;;;;;;;14.25;3.55;;;11.30;99.90;;;;;;5070355;28;20056;-54
2022/06/14 02:13:15;;;;;;;10.10;3.28;;;11.30;99.90;;;;;;5070317;28;20067;-55
2022/06/14 02:15:49;;;;;;;12.32;4.18;;;11.20;99.90;;;;;;5070317;28;20051;-55
2022/06/14 02:18:20;;;;;;;8.95;2.90;;;11.20;99.90;;;;;;5070160;28;20053;-54
2022/06/14 02:21:14;;;;;;;11.10;4.57;;;11.20;99.90;;;;;;5069962;28;20088;-54
2022/06/14 02:23:47;;;;;;;12.30;3.97;;;11.20;99.90;;;;;;5070844;28;20056;-54
2022/06/14 02:26:31;;;;;;;11.70;3.75;;;11.00;99.90;;;;;;5092030;28;20104;-54
2022/06/14 02:29:03;;;;;;;10.95;3.63;;;11.00;99.90;;;;;;5067647;28;20036;-55
2022/06/14 02:31:41;;;;;;;9.68;3.67;;;11.10;99.90;;;;;;5092821;28;20047;-55
2022/06/14 02:34:13;;;;;;;13.75;4.68;;;11.00;99.90;;;;;;5092678;28;20044;-54
2022/06/14 02:36:45;;;;;;;7.78;3.92;;;10.90;99.90;;;;;;5092338;28;20055;-54
2022/06/14 02:39:17;;;;;;;12.82;3.35;;;10.90;99.90;;;;;;5092650;28;20075;-55
2022/06/14 02:42:04;;;;;;;9.27;3.70;;;10.90;99.90;;;;;;5092297;28;20098;-55
2022/06/14 02:44:34;;;;;;;11.45;3.90;;;10.90;99.90;;;;;;5092310;28;20036;-54
2022/06/14 02:47:20;;;;;;;10.57;3.65;;;10.80;99.90;;;;;;5092129;28;20043;-55
2022/06/14 02:49:54;;;;;;;8.85;3.95;;;10.70;99.90;;;;;;5092251;28;20032;-55
2022/06/14 02:52:29;;;;;;;13.90;4.25;;;10.90;99.90;;;;;;5091180;28;20051;-55
2022/06/14 02:55:00;;;;;;;13.98;4.53;;;10.70;99.90;;;;;;5092361;28;20115;-54
2022/06/14 02:57:44;;;;;;;7.32;4.10;;;10.70;99.90;;;;;;5091938;28;20044;-55
2022/06/14 03:00:24;;;;;;;10.82;4.03;;;10.70;99.90;;;;;;5092007;28;20044;-55
2022/06/14 03:02:53;;;;;;;;;;;10.70;99.90;;;;;;5092405;28;20028;-54
2022/06/14 03:05:33;;;;;;;13.88;3.92;;;10.70;99.90;;;;;;5092270;28;19916;-55
2022/06/14 03:08:02;;;;;;;10.45;3.70;;;10.70;99.90;;;;;;5065630;28;20386;-54
2022/06/14 03:10:53;;;;;;;11.85;5.05;;;10.70;99.90;;;;;;5092033;28;20532;-55
2022/06/14 03:13:31;;;;;;;22.02;5.03;;;10.60;99.90;;;;;;5091761;28;20490;-55
2022/06/14 03:16:29;;;;;;;12.93;4.00;;;10.70;99.90;;;;;;5091911;28;20079;-54
2022/06/14 03:18:58;;;;;;;10.23;3.85;;;10.60;99.90;;;;;;5091567;28;20060;-54
2022/06/14 03:21:37;;;;;;;9.35;4.25;;;10.60;99.90;;;;;;5091562;28;20490;-55
2022/06/14 03:24:28;;;;;;;11.43;4.40;;;10.50;99.90;;;;;;5091706;28;20047;-54
2022/06/14 03:27:24;;;;;;;12.45;4.85;;;10.60;99.90;;;;;;5091755;28;20047;-55
2022/06/14 03:30:05;;;;;;;9.63;4.13;;;10.60;99.90;;;;;;5090375;28;20371;-55
2022/06/14 03:32:37;;;;;;;18.48;4.60;;;10.60;99.90;;;;;;5091636;28;20043;-54
2022/06/14 03:35:13;;;;;;;11.00;4.07;;;10.60;99.90;;;;;;5091602;28;20028;-55
2022/06/14 03:37:39;;;;;;;12.25;4.07;;;10.70;99.90;;;;;;5094876;28;20402;-55
2022/06/14 03:40:09;;;;;;;7.75;4.03;;;10.60;99.90;;;;;;5096084;28;20044;-55
2022/06/14 03:42:36;;;;;;;10.27;3.83;;;10.60;99.90;;;;;;5095693;28;20051;-55
2022/06/14 03:45:03;;;;;;;10.10;4.93;;;10.60;99.90;;;;;;5095563;28;20047;-56
2022/06/14 03:47:29;;;;;;;12.52;4.45;;;10.60;99.90;;;;;;5095612;28;20111;-54
2022/06/14 03:50:02;;;;;;;12.52;3.70;;;10.60;99.90;;;;;;5095346;28;20046;-54
2022/06/14 03:52:54;;;;;;;15.77;4.78;;;10.60;99.90;;;;;;5095333;28;20040;-55
2022/06/14 03:55:41;;;;;;;16.30;4.80;;;10.60;99.90;;;;;;5095734;28;20040;-54
2022/06/14 03:58:19;;;;;;;9.48;3.58;;;10.60;99.90;;;;;;5094078;28;20043;-54
2022/06/14 04:00:49;;;;;;;9.43;4.45;;;10.70;99.90;;;;;;5095428;28;20055;-55
2022/06/14 04:03:34;;;;;;;10.85;4.68;;;10.70;99.90;;;;;;5094156;28;20040;-55
2022/06/14 04:06:24;;;;;;;11.25;4.38;;;10.70;99.90;;;;;;5095323;28;20070;-55
2022/06/14 04:08:50;;;;;;;16.73;5.03;;;10.70;99.90;;;;;;5095159;28;20051;-55
2022/06/14 04:11:40;;;;;;;9.60;4.43;;;10.70;99.90;;;;;;5095023;28;20051;-52
2022/06/14 04:14:43;;;;;;;11.63;4.20;;;10.70;99.90;;;;;;5095425;28;20066;-53
2022/06/14 04:17:22;;;;;;;10.65;4.80;;;10.70;99.90;;;;;;5094948;28;20052;-55
2022/06/14 04:19:53;;;;;;;12.82;4.22;;;10.70;99.90;;;;;;5070128;28;20036;-54
2022/06/14 04:22:37;;;;;;;15.30;4.25;;;10.70;99.90;;;;;;5095023;28;20184;-54
2022/06/14 04:25:16;;;;;;;13.50;5.82;;;10.70;99.90;;;;;;5094909;28;20478;-54
2022/06/14 04:28:01;;;;;;;10.98;4.88;;;10.80;99.90;;;;;;5093610;28;20509;-54
2022/06/14 04:30:30;;;;;;;11.40;4.03;;;10.80;99.90;;;;;;5094927;28;20040;-55
2022/06/14 04:33:06;;;;;;;11.68;3.97;;;10.90;99.90;;;;;;5095029;28;20407;-54
2022/06/14 04:35:50;;;;;;;11.38;4.40;;;10.90;99.90;;;;;;5094858;28;20401;-56
2022/06/14 04:38:21;;;;;;;14.63;4.47;;;11.00;99.90;;;;;;5094662;28;20046;-55
2022/06/14 04:41:13;;;;;;;7.97;4.32;;;11.10;99.90;;;;;;5089600;28;20032;-56
2022/06/14 04:43:47;;;;;;;21.13;5.20;;;11.10;99.90;;;;;;5070383;28;20051;-56
2022/06/14 04:46:40;;;;;;;11.20;4.50;;;11.20;99.90;;;;;;5094907;28;20028;-53
2022/06/14 04:49:21;;;;;;;14.90;4.43;;;11.30;99.90;;;;;;5093919;28;20040;-55
2022/06/14 04:51:52;;;;;;;11.23;4.45;;;11.30;99.90;;;;;;5094291;28;20046;-55
2022/06/14 04:54:48;;;;;;;12.55;3.85;;;11.40;99.90;;;;;;5094696;28;20092;-56
2022/06/14 04:57:17;;;;;;;9.80;3.97;;;11.50;99.90;;;;;;5069994;28;20046;-55
2022/06/14 04:59:52;;;;;;;11.75;3.80;;;11.60;99.90;;;;;;5094047;28;20118;-56
2022/06/14 05:02:26;;;;;;;15.90;3.78;;;11.60;99.90;;;;;;5093122;28;20040;-56
2022/06/14 05:05:22;;;;;;;12.25;4.13;;;11.60;99.90;;;;;;5094062;28;20040;-54
2022/06/14 05:08:06;;;;;;;13.07;3.80;;;11.70;99.90;;;;;;5054958;28;20151;-56
2022/06/14 05:10:46;;;;;;;13.43;4.75;;;11.70;99.90;;;;;;5071663;28;20047;-55
2022/06/14 05:13:22;;;;;;;9.70;3.75;;;11.80;99.90;;;;;;5071766;28;20056;-55
2022/06/14 05:15:54;;;;;;;10.95;3.90;;;11.90;99.90;;;;;;5071572;28;20044;-54
2022/06/14 05:18:28;;;;;;;6.32;3.40;;;11.90;99.90;;;;;;5071612;28;20087;-55
2022/06/14 05:21:14;;;;;;;10.23;3.95;;;12.00;99.90;;;;;;5071172;28;20064;-55
2022/06/14 05:23:49;;;;;;;11.82;4.18;;;12.00;99.90;;;;;;5071471;28;20036;-55
2022/06/14 05:26:35;;;;;;;7.05;3.67;;;12.00;99.90;;;;;;5060510;28;20110;-56
2022/06/14 05:29:19;;;;;;;11.27;4.13;;;12.10;99.90;;;;;;5053166;28;20144;-54
2022/06/14 05:31:59;;;;;;;10.45;3.40;;;12.20;99.90;;;;;;5043976;28;20053;-56
2022/06/14 05:34:28;;;;;;;15.00;3.80;;;12.20;99.90;;;;;;5071210;28;20040;-54
2022/06/14 05:37:13;;;;;;;8.00;3.35;;;12.30;99.90;;;;;;5071010;28;20036;-55
2022/06/14 05:39:48;;;;;;;21.13;4.68;;;12.40;99.90;;;;;;5070871;28;20119;-55
2022/06/14 05:42:19;;;;;;;10.05;3.85;;;12.40;99.90;;;;;;5071283;28;20141;-55
2022/06/14 05:44:48;;;;;;;9.85;4.03;;;12.40;99.90;;;;;;5075590;28;20375;-55
2022/06/14 05:47:18;;;;;;;12.98;4.07;;;12.40;99.90;;;;;;5092195;28;20077;-55
2022/06/14 05:49:52;;;;;;;13.85;3.72;;;12.50;99.90;;;;;;5093437;28;20040;-55
2022/06/14 05:52:26;;;;;;;9.70;4.15;;;12.50;99.90;;;;;;5092216;28;20059;-55
2022/06/14 05:55:08;;;;;;;11.63;4.68;;;12.60;99.90;;;;;;5093097;28;20046;-55
2022/06/14 05:57:46;;;;;;;11.40;4.65;;;12.70;99.90;;;;;;5083451;28;20032;-55
2022/06/14 06:00:17;;;;;;;8.68;4.07;;;12.70;99.90;;;;;;5090433;28;20055;-55
2022/06/14 06:02:55;;;;;;;13.90;4.10;;;12.70;99.90;;;;;;5093167;28;20512;-56
2022/06/14 06:05:32;;;;;;;8.32;4.30;;;12.80;99.90;;;;;;5093137;28;20040;-55
2022/06/14 06:08:22;;;;;;;13.35;4.20;;;12.90;99.90;;;;;;5093086;28;20575;-54
2022/06/14 06:10:52;;;;;;;;;;;13.20;99.90;;;;;;5067210;28;20040;-55
2022/06/14 06:13:20;;;;;;;10.65;3.30;;;13.30;99.90;;;;;;5093016;28;19916;-54
2022/06/14 06:15:56;;;;;;;16.63;4.07;;;13.30;99.90;;;;;;5092749;28;20051;-53
2022/06/14 06:18:23;;;;;;;9.27;3.20;;;13.60;99.90;;;;;;5092698;28;20514;-53
2022/06/14 06:21:01;;;;;;;8.82;2.92;;;13.90;99.90;;;;;;5092653;28;20055;-54
2022/06/14 06:23:34;;;;;;;9.90;3.08;;;13.90;99.90;;;;;;5086339;28;20032;-52
2022/06/14 06:26:00;;;;;;;10.68;3.17;;;14.10;99.90;;;;;;5073041;28;20119;-54
2022/06/14 06:28:31;;;;;;;8.73;3.20;;;14.30;99.90;;;;;;5072352;28;20147;-55
2022/06/14 06:31:25;;;;;;;7.97;3.30;;;14.50;99.90;;;;;;5088456;28;20042;-55
2022/06/14 06:33:54;;;;;;;11.63;3.40;;;14.60;99.90;;;;;;5092845;28;20047;-54
2022/06/14 06:36:37;;;;;;;13.27;3.42;;;14.70;99.90;;;;;;5092471;28;20032;-54
2022/06/14 06:39:24;;;;;;;9.52;3.05;;;14.80;99.90;;;;;;5092952;28;20039;-54
2022/06/14 06:41:55;;;;;;;8.02;3.25;;;15.00;99.90;;;;;;5098862;27;20040;-52
2022/06/14 06:44:32;;;;;;;13.57;3.13;;;15.10;99.90;;;;;;5091571;28;20471;-54
2022/06/14 06:47:18;;;;;;;11.90;2.60;;;15.20;99.90;;;;;;5067507;28;20433;-54
2022/06/14 06:49:53;;;;;;;9.07;2.88;;;15.40;99.90;;;;;;5091992;28;20571;-54
2022/06/14 06:52:31;;;;;;;8.57;2.60;;;15.50;99.90;;;;;;5092633;28;20087;-54
2022/06/14 06:55:04;;;;;;;4.93;1.75;;;15.60;99.90;;;;;;5092246;28;20111;-54
2022/06/14 06:57:33;;;;;;;7.40;2.65;;;15.70;99.90;;;;;;5091290;28;20055;-55
2022/06/14 06:59:59;;;;;;;;;;;16.00;99.90;;;;;;5091228;28;20052;-54
2022/06/14 07:02:43;;;;;;;9.88;1.83;;;16.10;99.90;;;;;;5092550;28;19916;-55
2022/06/14 07:05:14;;;;;;;7.07;1.75;;;16.20;99.90;;;;;;5092369;28;20440;-53
2022/06/14 07:07:51;;;;;;;9.30;2.00;;;16.50;99.90;;;;;;5091030;28;20118;-55
2022/06/14 07:10:29;;;;;;;9.70;2.00;;;16.70;99.90;;;;;;5092443;28;20386;-54
2022/06/14 07:13:24;;;;;;;4.50;1.42;;;16.60;99.90;;;;;;5090428;28;20406;-53
2022/06/14 07:16:02;;;;;;;8.90;2.33;;;16.50;99.90;;;;;;5092263;28;20150;-54
2022/06/14 07:18:35;;;;;;;6.85;1.85;;;16.50;99.90;;;;;;5090962;28;20032;-53
2022/06/14 07:21:08;;;;;;;5.85;1.85;;;16.60;99.90;;;;;;5071145;28;20044;-55
2022/06/14 07:23:57;;;;;;;5.43;1.50;;;16.60;99.90;;;;;;5069332;28;20068;-54
2022/06/14 07:26:28;;;;;;;8.77;2.10;;;16.80;99.90;;;;;;5071274;28;20040;-53
2022/06/14 07:29:00;;;;;;;4.60;1.52;;;16.80;99.90;;;;;;5090165;28;20051;-52
2022/06/14 07:31:47;;;;;;;7.47;1.65;;;16.80;99.90;;;;;;5091976;28;20543;-52
2022/06/14 07:34:14;;;;;;;4.95;1.40;;;16.80;99.90;;;;;;5092612;28;20032;-54
2022/06/14 07:37:21;;;;;;;8.18;1.70;;;16.90;99.90;;;;;;5092407;28;20206;-55
2022/06/14 07:40:15;;;;;;;6.07;1.70;;;16.90;99.90;;;;;;5037501;28;20049;-53
2022/06/14 07:42:51;;;;;;;8.73;1.65;;;16.90;99.90;;;;;;5026760;28;20049;-54
2022/06/14 07:45:25;;;;;;;7.40;1.42;;;17.60;99.90;;;;;;5049390;28;20107;-54
2022/06/14 07:48:00;;;;;;;5.93;1.80;;;18.20;99.90;;;;;;5049464;28;20040;-54
2022/06/14 07:50:38;;;;;;;5.38;1.40;;;18.10;99.90;;;;;;5049400;28;20049;-55
2022/06/14 07:53:21;;;;;;;5.35;1.50;;;18.20;99.90;;;;;;5049564;28;20102;-52
2022/06/14 07:55:52;;;;;;;4.15;1.48;;;18.40;99.90;;;;;;5049162;28;20057;-54
2022/06/14 07:58:32;;;;;;;6.50;1.38;;;18.30;99.90;;;;;;5049519;28;20052;-54
2022/06/14 08:01:09;;;;;;;7.68;1.95;;;18.30;99.90;;;;;;5049389;28;20037;-55
2022/06/14 08:03:45;;;;;;;7.53;1.60;;;18.40;99.90;;;;;;5032907;28;20060;-54
2022/06/14 08:06:20;;;;;;;7.35;1.38;;;19.00;99.90;;;;;;5049300;28;20477;-55
2022/06/14 08:08:51;;;;;;;7.50;2.00;;;18.90;99.90;;;;;;5049136;28;20045;-55
2022/06/14 08:11:32;;;;;;;6.13;1.30;;;19.10;99.90;;;;;;5049148;28;20040;-55
2022/06/14 08:14:08;;;;;;;6.65;1.60;;;19.70;99.90;;;;;;5048953;28;20398;-55
2022/06/14 08:16:35;;;;;;;5.35;1.55;;;19.90;99.90;;;;;;5091710;28;20099;-54
2022/06/14 08:19:16;;;;;;;4.70;1.48;;;20.10;99.90;;;;;;5091683;28;20081;-53
2022/06/14 08:22:00;;;;;;;6.90;1.48;;;20.00;99.90;;;;;;5091304;28;20052;-54
2022/06/14 08:24:33;;;;;;;4.10;1.15;;;19.50;99.90;;;;;;5093890;28;20110;-55
2022/06/14 08:27:15;;;;;;;6.70;1.30;;;19.20;99.90;;;;;;5095589;28;20044;-54
2022/06/14 08:30:16;;;;;;;4.13;1.30;;;19.50;99.90;;;;;;5095367;28;20068;-54
2022/06/14 08:33:01;;;;;;;2.50;1.10;;;20.00;99.90;;;;;;5072471;28;20052;-54
2022/06/14 08:35:43;;;;;;;6.13;1.50;;;20.50;99.90;;;;;;5072695;28;20052;-55
2022/06/14 08:38:20;;;;;;;5.60;1.13;;;20.80;99.90;;;;;;5072513;28;20372;-55
2022/06/14 08:40:48;;;;;;;4.82;1.20;;;20.50;99.90;;;;;;5072588;28;20048;-55
2022/06/14 08:43:21;;;;;;;4.63;1.40;;;20.10;99.90;;;;;;5072447;28;20055;-54
2022/06/14 08:46:24;;;;;;;6.40;1.45;;;19.80;99.90;;;;;;5072746;28;20045;-54
2022/06/14 08:48:59;;;;;;;4.28;1.30;;;19.50;99.90;;;;;;5072521;28;20458;-54
2022/06/14 08:51:58;;;;;;;4.78;1.30;;;19.10;99.90;;;;;;5072442;28;20049;-55
2022/06/14 08:54:56;;;;;;;3.60;1.20;;;19.00;99.90;;;;;;5072525;28;20127;-54
2022/06/14 08:57:45;;;;;;;2.10;0.90;;;19.20;99.90;;;;;;5071997;28;20052;-55
2022/06/14 09:00:38;;;;;;;6.07;1.38;;;19.30;99.90;;;;;;5072588;28;20483;-53
2022/06/14 09:03:12;;;;;;;5.63;1.33;;;19.90;99.90;;;;;;5072117;28;20098;-55
2022/06/14 09:06:11;;;;;;;4.82;1.10;;;20.30;99.90;;;;;;5072310;28;20135;-55
2022/06/14 09:08:46;;;;;;;3.92;1.38;;;20.40;99.90;;;;;;5078676;28;20044;-55
2022/06/14 09:11:18;;;;;;;3.78;1.50;;;20.10;99.90;;;;;;5094926;28;20059;-55
2022/06/14 09:14:06;;;;;;;4.10;1.27;;;20.00;99.90;;;;;;5094471;28;20036;-55
2022/06/14 09:17:00;;;;;;;1.98;0.93;;;20.40;99.90;;;;;;5071653;28;20044;-54
2022/06/14 09:19:28;;;;;;;4.00;1.00;;;20.60;99.90;;;;;;5071651;28;20040;-55
2022/06/14 09:22:05;;;;;;;6.43;1.60;;;20.90;99.90;;;;;;5071487;28;20049;-55
2022/06/14 09:24:48;;;;;;;5.00;1.35;;;21.30;99.90;;;;;;5071553;28;20076;-55
2022/06/14 09:27:46;;;;;;;3.85;0.90;;;21.60;99.90;;;;;;5072004;28;20060;-54
2022/06/14 09:30:39;;;;;;;5.25;1.55;;;21.80;99.90;;;;;;5071729;28;20056;-54
2022/06/14 09:33:43;;;;;;;3.13;1.13;;;21.80;99.90;;;;;;5071534;28;20036;-55
2022/06/14 09:37:06;;;;;;;6.00;1.20;;;21.80;99.90;;;;;;5071555;28;20040;-54
2022/06/14 09:40:11;;;;;;;2.63;1.23;;;21.80;99.90;;;;;;4992228;28;20054;-54
2022/06/14 09:42:43;;;;;;;4.53;1.95;;;21.70;99.90;;;;;;4975947;28;20050;-53
2022/06/14 09:45:31;;;;;;;4.78;1.20;;;21.90;99.90;;;;;;4992412;28;20054;-55
2022/06/14 09:48:21;;;;;;;4.50;1.10;;;21.90;99.90;;;;;;4992052;28;20042;-55
2022/06/14 09:50:50;;;;;;;;;;;21.70;99.90;;;;;;4992728;28;20061;-54
2022/06/14 09:53:30;;;;;;;5.25;1.52;;;21.40;99.90;;;;;;4992023;28;19918;-54
2022/06/14 09:56:44;;;;;;;3.30;1.13;;;21.00;99.90;;;;;;5002722;28;20053;-55
2022/06/14 09:59:40;;;;;;;5.13;1.02;;;20.60;99.90;;;;;;5031443;28;20050;-55
2022/06/14 10:02:32;;;;;;;4.93;1.45;;;20.40;99.90;;;;;;5031180;28;20116;-55
2022/06/14 10:05:04;;;;;;;5.15;1.10;;;20.30;99.90;;;;;;5005680;28;20042;-55
2022/06/14 10:08:05;;;;;;;2.83;0.98;;;20.30;99.90;;;;;;5010907;28;20045;-55
2022/06/14 10:10:34;;;;;;;3.30;1.20;;;20.20;99.90;;;;;;5010113;28;20049;-55
2022/06/14 10:12:59;;;;;;;;;;;20.10;99.90;;;;;;5051327;28;20187;-55
2022/06/14 10:15:34;;;;;;;4.13;1.20;;;20.00;99.90;;;;;;5050856;28;19996;-55
2022/06/14 10:18:06;;;;;;;6.03;2.90;;;19.90;99.90;;;;;;5040368;28;20063;-55
2022/06/14 10:20:57;;;;;;;4.72;1.73;;;20.00;99.90;;;;;;5050567;28;20056;-55
2022/06/14 10:23:47;;;;;;;3.58;1.42;;;19.90;99.90;;;;;;5029458;28;20055;-55
2022/06/14 10:29:37;;;;;;;5.43;1.73;;;20.00;99.90;;;;;;5050614;28;20041;-55
2022/06/14 10:32:23;;;;;;;3.42;1.30;;;19.90;99.90;;;;;;5050778;28;20060;-55
2022/06/14 10:34:59;;;;;;;3.58;1.40;;;19.90;99.90;;;;;;5050360;28;20557;-55
2022/06/14 10:37:46;;;;;;;4.10;1.13;;;19.60;99.90;;;;;;5050411;28;20443;-55
2022/06/14 10:40:49;;;;;;;2.40;1.58;;;19.50;99.90;;;;;;5025568;28;20446;-56
2022/06/14 10:43:45;;;;;;;2.70;1.38;;;19.30;99.90;;;;;;5030542;28;20599;-55
2022/06/14 10:46:19;;;;;;;3.65;1.77;;;19.20;99.90;;;;;;5029807;28;20045;-55
2022/06/14 10:49:05;;;;;;;3.80;1.30;;;18.90;99.90;;;;;;5070217;28;20051;-54
2022/06/14 10:52:08;;;;;;;7.85;2.00;;;18.80;99.90;;;;;;5070483;28;20168;-55
2022/06/14 10:55:01;;;;;;;4.25;1.50;;;18.70;99.90;;;;;;5070199;28;20052;-55
2022/06/14 10:58:00;;;;;;;7.60;2.22;;;18.60;99.90;;;;;;5070157;28;20046;-55
2022/06/14 11:01:04;;;;;;;6.72;1.83;;;18.50;99.90;;;;;;5070288;28;20125;-54
2022/06/14 11:03:42;;;;;;;9.02;2.35;;;18.30;99.90;;;;;;5070145;28;20052;-54
2022/06/14 11:06:21;;;;;;;6.28;2.63;;;18.40;99.90;;;;;;5070091;28;20494;-55
2022/06/14 11:09:05;;;;;;;4.85;2.08;;;18.30;99.90;;;;;;5070049;28;20044;-56
2022/06/14 11:11:57;;;;;;;7.07;2.10;;;18.40;99.90;;;;;;5069888;28;20036;-55
2022/06/14 11:14:29;;;;;;;5.80;1.95;;;18.40;99.90;;;;;;5053366;28;20048;-55
2022/06/14 11:17:09;;;;;;;4.72;1.80;;;18.30;99.90;;;;;;5069830;28;20036;-55
2022/06/14 11:20:09;;;;;;;9.40;3.28;;;18.40;99.90;;;;;;5057186;28;20079;-55
2022/06/14 11:22:45;;;;;;;7.20;2.20;;;18.40;99.90;;;;;;5091516;28;20124;-56
2022/06/14 11:25:29;;;;;;;3.08;1.88;;;18.50;99.90;;;;;;5092456;28;20032;-55
2022/06/14 11:28:03;;;;;;;5.63;1.85;;;18.60;99.90;;;;;;5090833;28;20496;-56
2022/06/14 11:30:32;;;;;;;6.72;2.15;;;18.70;99.90;;;;;;5092588;28;20040;-56
2022/06/14 11:33:17;;;;;;;4.07;1.60;;;18.80;99.90;;;;;;5091061;28;20092;-56
2022/06/14 11:36:29;;;;;;;6.53;1.80;;;18.90;99.90;;;;;;5092478;28;20067;-56
2022/06/14 11:39:22;;;;;;;7.30;2.58;;;19.10;99.90;;;;;;5021003;28;20091;-55
2022/06/14 11:41:50;;;;;;;5.05;1.80;;;19.30;99.90;;;;;;5029627;28;20122;-55
2022/06/14 11:44:45;;;;;;;5.47;2.40;;;19.40;99.90;;;;;;5029531;28;20468;-55
2022/06/14 11:47:15;;;;;;;4.47;1.83;;;19.40;99.90;;;;;;5029764;28;20363;-56
2022/06/14 11:50:15;;;;;;;8.95;2.08;;;19.30;99.90;;;;;;5029604;28;20056;-55
2022/06/14 11:52:59;;;;;;;5.32;2.20;;;19.30;99.90;;;;;;5029731;28;20052;-55
2022/06/14 11:55:33;;;;;;;7.07;2.13;;;19.40;99.90;;;;;;5029500;28;20043;-55
2022/06/14 11:58:11;;;;;;;7.55;1.85;;;19.50;99.90;;;;;;5031808;28;20167;-56
2022/06/14 12:01:08;;;;;;;6.75;2.22;;;19.70;99.90;;;;;;5033580;28;20046;-55
2022/06/14 12:04:03;;;;;;;6.00;2.28;;;19.80;99.90;;;;;;4974526;28;20065;-56
2022/06/14 12:06:36;;;;;;;5.13;1.67;;;20.10;99.90;;;;;;4974723;28;20149;-55
2022/06/14 12:09:22;;;;;;;1.52;0.98;;;20.70;99.90;;;;;;4974677;28;20035;-56
2022/06/14 12:11:59;;;;;;;5.82;1.75;;;21.20;99.90;;;;;;4976191;28;20047;-56
2022/06/14 12:14:49;;;;;;;3.45;1.38;;;21.30;99.90;;;;;;4988748;28;20114;-56
2022/06/14 12:17:21;;;;;;;6.80;1.75;;;21.10;99.90;;;;;;4988630;28;20100;-56
2022/06/14 12:20:17;;;;;;;3.45;1.58;;;20.80;99.90;;;;;;4992982;28;20042;-55
2022/06/14 12:22:45;;;;;;;5.53;1.58;;;20.80;99.90;;;;;;4993223;28;20077;-55
2022/06/14 12:28:21;;;;;;;6.38;1.95;;;20.50;99.90;;;;;;4993611;28;20084;-55
2022/06/14 12:30:52;;;;;;;3.42;1.75;;;20.40;99.90;;;;;;4993733;28;20218;-57
2022/06/14 12:33:29;;;;;;;4.55;1.80;;;20.30;99.90;;;;;;4993633;28;20050;-55
2022/06/14 12:36:10;;;;;;;4.47;1.73;;;20.30;99.90;;;;;;4977888;28;20038;-57
2022/06/14 12:38:40;;;;;;;6.40;2.47;;;20.30;99.90;;;;;;5014860;28;20559;-56
2022/06/14 12:41:24;;;;;;;7.95;1.95;;;20.20;99.90;;;;;;5095015;28;20479;-56
2022/06/14 12:44:15;;;;;;;4.38;1.60;;;20.20;99.90;;;;;;5095427;28;20391;-56
2022/06/14 12:46:44;;;;;;;33.38;4.38;;;20.20;99.90;;;;;;5095373;28;20368;-56
2022/06/14 12:49:19;;;;;;;7.65;2.40;;;20.20;99.90;;;;;;5095393;28;20036;-55
2022/06/14 12:52:09;;;;;;;4.00;1.73;;;20.10;99.90;;;;;;5093897;28;20089;-55
2022/06/14 12:54:49;;;;;;;6.20;1.80;;;20.20;99.90;;;;;;5090739;28;20124;-56
2022/06/14 12:57:25;;;;;;;7.95;1.75;;;20.40;99.90;;;;;;5073793;28;21620;-56
2022/06/14 13:00:02;;;;;;;5.07;1.77;;;20.40;99.90;;;;;;5084743;28;20481;-56
2022/06/14 13:02:37;;;;;;;5.25;1.85;;;20.60;99.90;;;;;;5093722;28;20043;-56
2022/06/14 13:05:09;;;;;;;5.00;1.95;;;20.70;99.90;;;;;;5094803;28;20036;-56
2022/06/14 13:08:02;;;;;;;3.97;1.60;;;20.60;99.90;;;;;;5094642;28;20036;-56
2022/06/14 13:10:49;;;;;;;4.45;1.40;;;20.70;99.90;;;;;;5093010;28;20178;-56
2022/06/14 13:13:21;;;;;;;8.57;2.20;;;20.80;99.90;;;;;;5094883;28;20044;-56
2022/06/14 13:16:06;;;;;;;4.97;1.90;;;20.90;99.90;;;;;;5094732;28;20434;-56
2022/06/14 13:18:50;;;;;;;4.45;2.20;;;20.90;99.90;;;;;;5094838;28;20078;-56
2022/06/14 13:21:31;;;;;;;4.82;1.45;;;20.80;99.90;;;;;;5094115;28;20496;-56
2022/06/14 13:24:36;;;;;;;4.07;1.40;;;20.90;99.90;;;;;;5094780;28;20067;-56
2022/06/14 13:27:22;;;;;;;7.78;2.00;;;20.90;99.90;;;;;;5077015;28;20090;-56
2022/06/14 13:29:53;;;;;;;6.25;1.92;;;20.90;99.90;;;;;;5094313;28;20126;-56
2022/06/14 13:32:38;;;;;;;5.13;1.92;;;21.00;99.90;;;;;;5081124;28;20044;-56
2022/06/14 13:35:23;;;;;;;3.55;1.63;;;21.20;99.90;;;;;;5069159;28;20066;-56
2022/06/14 13:38:09;;;;;;;5.22;1.83;;;20.80;99.90;;;;;;5094425;28;20097;-57
2022/06/14 13:40:46;;;;;;;4.65;1.60;;;20.90;99.90;;;;;;5093086;28;20127;-55
2022/06/14 13:43:23;;;;;;;6.45;1.98;;;20.80;99.90;;;;;;5093882;28;20047;-55
2022/06/14 13:46:04;;;;;;;4.60;2.08;;;20.70;99.90;;;;;;5094207;28;20032;-56
2022/06/14 13:48:46;;;;;;;9.18;2.05;;;20.50;99.90;;;;;;5094059;28;20039;-56
2022/06/14 13:51:24;;;;;;;5.35;1.80;;;20.30;99.90;;;;;;5093766;28;20048;-56
2022/06/14 13:53:58;;;;;;;5.00;1.70;;;20.30;99.90;;;;;;5094140;28;20060;-56
2022/06/14 13:56:31;;;;;;;10.40;1.73;;;20.40;99.90;;;;;;5093640;28;20133;-56
2022/06/14 13:59:15;;;;;;;4.28;1.48;;;20.40;99.90;;;;;;5093877;28;20470;-56